sensor_id;sensor_type;location;lat;lon;timestamp;temperature;humidity
10459;DHT22;5277;48.722;8.736;2022-08-21T00:00:18;14.90;99.90
10459;DHT22;5277;48.722;8.736;2022-08-21T00:02:48;14.90;99.90
10459;DHT22;5277;48.722;8.736;2022-08-21T00:05:15;14.90;99.90
10459;DHT22;5277;48.722;8.736;2022-08-21T00:07:41;14.90;99.90
10459;DHT22;5277;48.722;8.736;2022-08-21T00:10:07;14.90;99.90
10459;DHT22;5277;48.722;8.736;2022-08-21T00:12:32;14.90;99.90
10459;DHT22;5277;48.722;8.736;2022-08-21T00:14:59;14.90;99.90
10459;DHT22;5277;48.722;8.736;2022-08-21T00:17:25;14.90;99.90
10459;DHT22;5277;48.722;8.736;2022-08-21T00:19:50;14.90;99.90
10459;DHT22;5277;48.722;8.736;2022-08-21T00:22:16;14.80;99.90
10459;DHT22;5277;48.722;8.736;2022-08-21T00:24:42;14.80;99.90
10459;DHT22;5277;48.722;8.736;2022-08-21T00:27:08;14.70;99.90
10459;DHT22;5277;48.722;8.736;2022-08-21T00:29:34;14.70;99.90
10459;DHT22;5277;48.722;8.736;2022-08-21T00:31:59;14.70;99.90
10459;DHT22;5277;48.722;8.736;2022-08-21T00:34:25;14.70;99.90
10459;DHT22;5277;48.722;8.736;2022-08-21T00:36:51;14.60;99.90
10459;DHT22;5277;48.722;8.736;2022-08-21T00:39:16;14.60;99.90
10459;DHT22;5277;48.722;8.736;2022-08-21T00:41:42;14.60;99.90
10459;DHT22;5277;48.722;8.736;2022-08-21T00:44:10;14.60;99.90
10459;DHT22;5277;48.722;8.736;2022-08-21T00:46:38;14.60;99.90
10459;DHT22;5277;48.722;8.736;2022-08-21T00:49:04;14.60;99.90
10459;DHT22;5277;48.722;8.736;2022-08-21T00:51:42;14.50;99.90
10459;DHT22;5277;48.722;8.736;2022-08-21T00:54:10;14.50;99.90
10459;DHT22;5277;48.722;8.736;2022-08-21T00:56:36;14.60;99.90
10459;DHT22;5277;48.722;8.736;2022-08-21T00:59:02;14.50;99.90
10459;DHT22;5277;48.722;8.736;2022-08-21T01:01:29;14.50;99.90
10459;DHT22;5277;48.722;8.736;2022-08-21T01:03:55;14.50;99.90
10459;DHT22;5277;48.722;8.736;2022-08-21T01:06:21;14.50;99.90
10459;DHT22;5277;48.722;8.736;2022-08-21T01:08:46;14.50;99.90
10459;DHT22;5277;48.722;8.736;2022-08-21T01:11:14;14.40;99.90
10459;DHT22;5277;48.722;8.736;2022-08-21T01:13:40;14.40;99.90
10459;DHT22;5277;48.722;8.736;2022-08-21T01:16:10;14.40;99.90
10459;DHT22;5277;48.722;8.736;2022-08-21T01:18:36;14.40;99.90
10459;DHT22;5277;48.722;8.736;2022-08-21T01:21:12;14.40;99.90
10459;DHT22;5277;48.722;8.736;2022-08-21T01:23:41;14.30;99.90
10459;DHT22;5277;48.722;8.736;2022-08-21T01:26:09;14.30;99.90
10459;DHT22;5277;48.722;8.736;2022-08-21T01:28:50;14.30;99.90
10459;DHT22;5277;48.722;8.736;2022-08-21T01:31:20;14.30;99.90
10459;DHT22;5277;48.722;8.736;2022-08-21T01:33:47;14.30;99.90
10459;DHT22;5277;48.722;8.736;2022-08-21T01:36:13;14.20;99.90
10459;DHT22;5277;48.722;8.736;2022-08-21T01:38:39;14.20;99.90
10459;DHT22;5277;48.722;8.736;2022-08-21T01:41:05;14.10;99.90
10459;DHT22;5277;48.722;8.736;2022-08-21T01:43:30;14.10;99.90
10459;DHT22;5277;48.722;8.736;2022-08-21T01:45:56;14.10;99.90
10459;DHT22;5277;48.722;8.736;2022-08-21T01:48:22;14.10;99.90
10459;DHT22;5277;48.722;8.736;2022-08-21T01:50:47;14.00;99.90
10459;DHT22;5277;48.722;8.736;2022-08-21T01:53:13;13.90;99.90
10459;DHT22;5277;48.722;8.736;2022-08-21T01:55:41;13.90;99.90
10459;DHT22;5277;48.722;8.736;2022-08-21T01:58:07;13.80;99.90
10459;DHT22;5277;48.722;8.736;2022-08-21T02:00:33;13.80;99.90
10459;DHT22;5277;48.722;8.736;2022-08-21T02:02:59;13.80;99.90
10459;DHT22;5277;48.722;8.736;2022-08-21T02:05:24;13.80;99.90
10459;DHT22;5277;48.722;8.736;2022-08-21T02:07:52;13.80;99.90
10459;DHT22;5277;48.722;8.736;2022-08-21T02:10:30;13.80;99.90
10459;DHT22;5277;48.722;8.736;2022-08-21T02:12:58;13.80;99.90
10459;DHT22;5277;48.722;8.736;2022-08-21T02:15:25;13.80;99.90
10459;DHT22;5277;48.722;8.736;2022-08-21T02:17:57;13.80;99.90
10459;DHT22;5277;48.722;8.736;2022-08-21T02:20:47;13.70;99.90
10459;DHT22;5277;48.722;8.736;2022-08-21T02:23:13;13.70;99.90
10459;DHT22;5277;48.722;8.736;2022-08-21T02:25:40;13.60;99.90
10459;DHT22;5277;48.722;8.736;2022-08-21T02:28:11;13.60;99.90
10459;DHT22;5277;48.722;8.736;2022-08-21T02:30:42;13.60;99.90
10459;DHT22;5277;48.722;8.736;2022-08-21T02:33:09;13.50;99.90
10459;DHT22;5277;48.722;8.736;2022-08-21T02:35:37;13.50;99.90
10459;DHT22;5277;48.722;8.736;2022-08-21T02:38:09;13.50;99.90
10459;DHT22;5277;48.722;8.736;2022-08-21T02:40:38;13.50;99.90
10459;DHT22;5277;48.722;8.736;2022-08-21T02:43:05;13.40;99.90
10459;DHT22;5277;48.722;8.736;2022-08-21T02:45:32;13.40;99.90
10459;DHT22;5277;48.722;8.736;2022-08-21T02:48:04;13.40;99.90
10459;DHT22;5277;48.722;8.736;2022-08-21T02:50:33;13.40;99.90
10459;DHT22;5277;48.722;8.736;2022-08-21T02:53:00;13.40;99.90
10459;DHT22;5277;48.722;8.736;2022-08-21T02:55:28;13.30;99.90
10459;DHT22;5277;48.722;8.736;2022-08-21T02:57:55;13.30;99.90
10459;DHT22;5277;48.722;8.736;2022-08-21T03:00:23;13.20;99.90
10459;DHT22;5277;48.722;8.736;2022-08-21T03:02:50;13.30;99.90
10459;DHT22;5277;48.722;8.736;2022-08-21T03:05:16;13.20;99.90
10459;DHT22;5277;48.722;8.736;2022-08-21T03:07:43;13.10;99.90
10459;DHT22;5277;48.722;8.736;2022-08-21T03:10:09;13.10;99.90
10459;DHT22;5277;48.722;8.736;2022-08-21T03:12:36;13.10;99.90
10459;DHT22;5277;48.722;8.736;2022-08-21T03:15:10;13.20;99.90
10459;DHT22;5277;48.722;8.736;2022-08-21T03:17:36;13.20;99.90
10459;DHT22;5277;48.722;8.736;2022-08-21T03:20:04;13.10;99.90
10459;DHT22;5277;48.722;8.736;2022-08-21T03:22:30;13.10;99.90
10459;DHT22;5277;48.722;8.736;2022-08-21T03:24:56;13.20;99.90
10459;DHT22;5277;48.722;8.736;2022-08-21T03:27:22;13.10;99.90
10459;DHT22;5277;48.722;8.736;2022-08-21T03:29:52;13.10;99.90
10459;DHT22;5277;48.722;8.736;2022-08-21T03:32:18;13.10;99.90
10459;DHT22;5277;48.722;8.736;2022-08-21T03:34:45;13.10;99.90
10459;DHT22;5277;48.722;8.736;2022-08-21T03:37:11;13.10;99.90
10459;DHT22;5277;48.722;8.736;2022-08-21T03:39:37;13.00;99.90
10459;DHT22;5277;48.722;8.736;2022-08-21T03:42:03;12.80;99.90
10459;DHT22;5277;48.722;8.736;2022-08-21T03:44:30;12.90;99.90
10459;DHT22;5277;48.722;8.736;2022-08-21T03:46:56;12.90;99.90
10459;DHT22;5277;48.722;8.736;2022-08-21T03:49:22;12.90;99.90
10459;DHT22;5277;48.722;8.736;2022-08-21T03:51:48;12.90;99.90
10459;DHT22;5277;48.722;8.736;2022-08-21T03:54:13;12.90;99.90
10459;DHT22;5277;48.722;8.736;2022-08-21T03:56:39;12.90;99.90
10459;DHT22;5277;48.722;8.736;2022-08-21T03:59:05;12.90;99.90
10459;DHT22;5277;48.722;8.736;2022-08-21T04:01:31;12.90;99.90
10459;DHT22;5277;48.722;8.736;2022-08-21T04:03:57;12.90;99.90
10459;DHT22;5277;48.722;8.736;2022-08-21T04:06:23;12.80;99.90
10459;DHT22;5277;48.722;8.736;2022-08-21T04:08:48;12.80;99.90
10459;DHT22;5277;48.722;8.736;2022-08-21T04:11:14;12.90;99.90
10459;DHT22;5277;48.722;8.736;2022-08-21T04:13:40;12.80;99.90
10459;DHT22;5277;48.722;8.736;2022-08-21T04:16:06;12.80;99.90
10459;DHT22;5277;48.722;8.736;2022-08-21T04:18:32;12.80;99.90
10459;DHT22;5277;48.722;8.736;2022-08-21T04:20:59;12.80;99.90
10459;DHT22;5277;48.722;8.736;2022-08-21T04:23:26;12.80;99.90
10459;DHT22;5277;48.722;8.736;2022-08-21T04:25:53;12.80;99.90
10459;DHT22;5277;48.722;8.736;2022-08-21T04:28:20;12.80;99.90
10459;DHT22;5277;48.722;8.736;2022-08-21T04:30:46;12.80;99.90
10459;DHT22;5277;48.722;8.736;2022-08-21T04:33:12;12.80;99.90
10459;DHT22;5277;48.722;8.736;2022-08-21T04:35:38;12.80;99.90
10459;DHT22;5277;48.722;8.736;2022-08-21T04:38:04;12.80;99.90
10459;DHT22;5277;48.722;8.736;2022-08-21T04:40:29;12.80;99.90
10459;DHT22;5277;48.722;8.736;2022-08-21T04:43:02;12.80;99.90
10459;DHT22;5277;48.722;8.736;2022-08-21T04:45:32;12.80;99.90
10459;DHT22;5277;48.722;8.736;2022-08-21T04:48:00;12.70;99.90
10459;DHT22;5277;48.722;8.736;2022-08-21T04:50:40;12.70;99.90
10459;DHT22;5277;48.722;8.736;2022-08-21T04:53:10;12.80;99.90
10459;DHT22;5277;48.722;8.736;2022-08-21T04:55:36;12.70;99.90
10459;DHT22;5277;48.722;8.736;2022-08-21T04:58:05;12.70;99.90
10459;DHT22;5277;48.722;8.736;2022-08-21T05:00:31;12.70;99.90
10459;DHT22;5277;48.722;8.736;2022-08-21T05:02:58;12.70;99.90
10459;DHT22;5277;48.722;8.736;2022-08-21T05:05:28;12.70;99.90
10459;DHT22;5277;48.722;8.736;2022-08-21T05:07:56;12.60;99.90
10459;DHT22;5277;48.722;8.736;2022-08-21T05:10:23;12.70;99.90
10459;DHT22;5277;48.722;8.736;2022-08-21T05:12:49;12.70;99.90
10459;DHT22;5277;48.722;8.736;2022-08-21T05:15:15;12.70;99.90
10459;DHT22;5277;48.722;8.736;2022-08-21T05:17:43;12.70;99.90
10459;DHT22;5277;48.722;8.736;2022-08-21T05:20:10;12.80;99.90
10459;DHT22;5277;48.722;8.736;2022-08-21T05:22:37;12.80;99.90
10459;DHT22;5277;48.722;8.736;2022-08-21T05:25:04;12.80;99.90
10459;DHT22;5277;48.722;8.736;2022-08-21T05:27:30;12.70;99.90
10459;DHT22;5277;48.722;8.736;2022-08-21T05:29:56;12.80;99.90
10459;DHT22;5277;48.722;8.736;2022-08-21T05:32:22;12.90;99.90
10459;DHT22;5277;48.722;8.736;2022-08-21T05:34:48;12.90;99.90
10459;DHT22;5277;48.722;8.736;2022-08-21T05:37:13;12.90;99.90
10459;DHT22;5277;48.722;8.736;2022-08-21T05:39:39;12.90;99.90
10459;DHT22;5277;48.722;8.736;2022-08-21T05:42:05;12.90;99.90
10459;DHT22;5277;48.722;8.736;2022-08-21T05:44:31;12.90;99.90
10459;DHT22;5277;48.722;8.736;2022-08-21T05:47:03;12.90;99.90
10459;DHT22;5277;48.722;8.736;2022-08-21T05:49:29;13.00;99.90
10459;DHT22;5277;48.722;8.736;2022-08-21T05:51:55;13.00;99.90
10459;DHT22;5277;48.722;8.736;2022-08-21T05:54:21;13.00;99.90
10459;DHT22;5277;48.722;8.736;2022-08-21T05:56:46;13.20;99.90
10459;DHT22;5277;48.722;8.736;2022-08-21T05:59:12;13.20;99.90
10459;DHT22;5277;48.722;8.736;2022-08-21T06:01:39;13.20;99.90
10459;DHT22;5277;48.722;8.736;2022-08-21T06:04:05;13.20;99.90
10459;DHT22;5277;48.722;8.736;2022-08-21T06:06:31;13.30;99.90
10459;DHT22;5277;48.722;8.736;2022-08-21T06:08:56;13.30;99.90
10459;DHT22;5277;48.722;8.736;2022-08-21T06:11:22;13.40;99.90
10459;DHT22;5277;48.722;8.736;2022-08-21T06:13:48;13.40;99.90
10459;DHT22;5277;48.722;8.736;2022-08-21T06:16:15;13.50;99.90
10459;DHT22;5277;48.722;8.736;2022-08-21T06:18:43;13.70;99.90
10459;DHT22;5277;48.722;8.736;2022-08-21T06:21:09;13.80;99.90
10459;DHT22;5277;48.722;8.736;2022-08-21T06:23:36;14.00;99.90
10459;DHT22;5277;48.722;8.736;2022-08-21T06:26:03;14.30;99.90
10459;DHT22;5277;48.722;8.736;2022-08-21T06:28:30;14.50;99.90
10459;DHT22;5277;48.722;8.736;2022-08-21T06:30:56;14.80;99.90
10459;DHT22;5277;48.722;8.736;2022-08-21T06:33:21;14.90;99.90
10459;DHT22;5277;48.722;8.736;2022-08-21T06:35:47;15.00;99.90
10459;DHT22;5277;48.722;8.736;2022-08-21T06:38:13;15.10;99.90
10459;DHT22;5277;48.722;8.736;2022-08-21T06:40:39;15.10;99.90
10459;DHT22;5277;48.722;8.736;2022-08-21T06:43:10;15.10;99.90
10459;DHT22;5277;48.722;8.736;2022-08-21T06:45:37;15.20;99.90
10459;DHT22;5277;48.722;8.736;2022-08-21T06:48:03;15.60;99.90
10459;DHT22;5277;48.722;8.736;2022-08-21T06:50:29;15.80;99.90
10459;DHT22;5277;48.722;8.736;2022-08-21T06:53:07;15.90;99.90
10459;DHT22;5277;48.722;8.736;2022-08-21T06:55:34;16.00;99.90
10459;DHT22;5277;48.722;8.736;2022-08-21T06:57:59;16.10;99.90
10459;DHT22;5277;48.722;8.736;2022-08-21T07:00:25;16.40;99.90
10459;DHT22;5277;48.722;8.736;2022-08-21T07:02:51;16.80;99.90
10459;DHT22;5277;48.722;8.736;2022-08-21T07:05:17;17.10;99.90
10459;DHT22;5277;48.722;8.736;2022-08-21T07:07:43;17.40;99.90
10459;DHT22;5277;48.722;8.736;2022-08-21T07:10:09;17.60;99.90
10459;DHT22;5277;48.722;8.736;2022-08-21T07:12:35;17.90;99.80
10459;DHT22;5277;48.722;8.736;2022-08-21T07:15:01;18.20;98.80
10459;DHT22;5277;48.722;8.736;2022-08-21T07:17:27;18.30;98.70
10459;DHT22;5277;48.722;8.736;2022-08-21T07:19:52;18.60;98.20
10459;DHT22;5277;48.722;8.736;2022-08-21T07:22:21;18.80;97.40
10459;DHT22;5277;48.722;8.736;2022-08-21T07:24:47;19.00;97.40
10459;DHT22;5277;48.722;8.736;2022-08-21T07:27:13;19.20;96.30
10459;DHT22;5277;48.722;8.736;2022-08-21T07:29:38;19.20;96.30
10459;DHT22;5277;48.722;8.736;2022-08-21T07:32:05;19.20;95.40
10459;DHT22;5277;48.722;8.736;2022-08-21T07:34:31;19.50;96.20
10459;DHT22;5277;48.722;8.736;2022-08-21T07:36:57;19.70;96.00
10459;DHT22;5277;48.722;8.736;2022-08-21T07:39:24;20.00;95.50
10459;DHT22;5277;48.722;8.736;2022-08-21T07:41:50;20.20;95.20
10459;DHT22;5277;48.722;8.736;2022-08-21T07:44:16;20.50;94.90
10459;DHT22;5277;48.722;8.736;2022-08-21T07:46:42;20.60;94.30
10459;DHT22;5277;48.722;8.736;2022-08-21T07:49:08;20.80;94.40
10459;DHT22;5277;48.722;8.736;2022-08-21T07:51:33;21.00;94.10
10459;DHT22;5277;48.722;8.736;2022-08-21T07:54:00;21.30;93.50
10459;DHT22;5277;48.722;8.736;2022-08-21T07:56:27;21.40;92.80
10459;DHT22;5277;48.722;8.736;2022-08-21T07:58:53;21.60;92.60
10459;DHT22;5277;48.722;8.736;2022-08-21T08:01:19;21.80;91.90
10459;DHT22;5277;48.722;8.736;2022-08-21T08:03:46;21.90;90.40
10459;DHT22;5277;48.722;8.736;2022-08-21T08:06:12;22.00;90.60
10459;DHT22;5277;48.722;8.736;2022-08-21T08:08:39;22.00;90.00
10459;DHT22;5277;48.722;8.736;2022-08-21T08:11:06;22.00;90.10
10459;DHT22;5277;48.722;8.736;2022-08-21T08:13:37;22.30;90.80
10459;DHT22;5277;48.722;8.736;2022-08-21T08:16:03;22.50;90.20
10459;DHT22;5277;48.722;8.736;2022-08-21T08:18:29;22.80;88.80
10459;DHT22;5277;48.722;8.736;2022-08-21T08:20:55;23.00;87.10
10459;DHT22;5277;48.722;8.736;2022-08-21T08:23:21;23.30;86.50
10459;DHT22;5277;48.722;8.736;2022-08-21T08:25:48;23.40;84.80
10459;DHT22;5277;48.722;8.736;2022-08-21T08:28:14;23.40;82.10
10459;DHT22;5277;48.722;8.736;2022-08-21T08:30:39;23.50;80.80
10459;DHT22;5277;48.722;8.736;2022-08-21T08:33:05;23.80;83.10
10459;DHT22;5277;48.722;8.736;2022-08-21T08:35:31;23.90;76.70
10459;DHT22;5277;48.722;8.736;2022-08-21T08:37:57;24.10;77.00
10459;DHT22;5277;48.722;8.736;2022-08-21T08:42:54;24.60;72.20
10459;DHT22;5277;48.722;8.736;2022-08-21T08:45:22;24.80;73.30
10459;DHT22;5277;48.722;8.736;2022-08-21T08:48:02;25.10;72.10
10459;DHT22;5277;48.722;8.736;2022-08-21T08:50:55;25.40;71.50
10459;DHT22;5277;48.722;8.736;2022-08-21T08:53:25;25.60;67.30
10459;DHT22;5277;48.722;8.736;2022-08-21T08:55:56;25.80;65.70
10459;DHT22;5277;48.722;8.736;2022-08-21T08:58:32;26.00;64.70
10459;DHT22;5277;48.722;8.736;2022-08-21T09:00:58;26.20;64.80
10459;DHT22;5277;48.722;8.736;2022-08-21T09:03:26;26.40;64.40
10459;DHT22;5277;48.722;8.736;2022-08-21T09:05:56;26.50;62.90
10459;DHT22;5277;48.722;8.736;2022-08-21T09:08:41;26.60;60.60
10459;DHT22;5277;48.722;8.736;2022-08-21T09:11:42;26.70;62.60
10459;DHT22;5277;48.722;8.736;2022-08-21T09:14:33;26.90;61.00
10459;DHT22;5277;48.722;8.736;2022-08-21T09:22:43;27.30;58.50
10459;DHT22;5277;48.722;8.736;2022-08-21T09:25:37;27.50;57.10
10459;DHT22;5277;48.722;8.736;2022-08-21T09:28:08;27.90;56.40
10459;DHT22;5277;48.722;8.736;2022-08-21T09:30:34;28.10;53.90
10459;DHT22;5277;48.722;8.736;2022-08-21T09:33:00;28.40;54.10
10459;DHT22;5277;48.722;8.736;2022-08-21T09:35:26;28.80;52.70
10459;DHT22;5277;48.722;8.736;2022-08-21T09:45:26;30.70;48.30
10459;DHT22;5277;48.722;8.736;2022-08-21T09:47:52;31.10;46.90
10459;DHT22;5277;48.722;8.736;2022-08-21T09:50:23;31.50;46.20
10459;DHT22;5277;48.722;8.736;2022-08-21T09:52:58;31.90;43.60
10459;DHT22;5277;48.722;8.736;2022-08-21T09:55:34;32.30;44.80
10459;DHT22;5277;48.722;8.736;2022-08-21T09:58:33;32.20;42.80
10459;DHT22;5277;48.722;8.736;2022-08-21T10:01:03;33.00;42.50
10459;DHT22;5277;48.722;8.736;2022-08-21T10:03:32;33.60;42.20
10459;DHT22;5277;48.722;8.736;2022-08-21T10:06:01;34.10;41.00
10459;DHT22;5277;48.722;8.736;2022-08-21T10:08:32;34.70;39.80
10459;DHT22;5277;48.722;8.736;2022-08-21T10:11:13;35.30;38.60
10459;DHT22;5277;48.722;8.736;2022-08-21T10:17:02;36.40;36.90
10459;DHT22;5277;48.722;8.736;2022-08-21T10:27:29;38.10;30.90
10459;DHT22;5277;48.722;8.736;2022-08-21T10:30:11;38.50;31.70
10459;DHT22;5277;48.722;8.736;2022-08-21T10:35:36;38.80;29.90
10459;DHT22;5277;48.722;8.736;2022-08-21T10:41:02;39.50;29.50
10459;DHT22;5277;48.722;8.736;2022-08-21T10:43:42;40.00;29.50
10459;DHT22;5277;48.722;8.736;2022-08-21T10:46:49;40.40;29.10
10459;DHT22;5277;48.722;8.736;2022-08-21T10:57:58;41.60;28.90
10459;DHT22;5277;48.722;8.736;2022-08-21T11:00:33;42.20;27.70
10459;DHT22;5277;48.722;8.736;2022-08-21T11:06:00;42.00;27.50
10459;DHT22;5277;48.722;8.736;2022-08-21T11:08:39;42.20;27.50
10459;DHT22;5277;48.722;8.736;2022-08-21T11:11:14;42.20;27.10
10459;DHT22;5277;48.722;8.736;2022-08-21T11:18:55;42.70;26.80
10459;DHT22;5277;48.722;8.736;2022-08-21T11:24:02;43.10;26.20
10459;DHT22;5277;48.722;8.736;2022-08-21T11:26:42;43.40;25.90
10459;DHT22;5277;48.722;8.736;2022-08-21T11:29:17;43.70;25.50
10459;DHT22;5277;48.722;8.736;2022-08-21T11:31:55;43.80;24.70
10459;DHT22;5277;48.722;8.736;2022-08-21T11:42:30;44.10;24.80
10459;DHT22;5277;48.722;8.736;2022-08-21T11:45:25;43.90;24.80
10459;DHT22;5277;48.722;8.736;2022-08-21T11:50:30;43.90;24.70
10459;DHT22;5277;48.722;8.736;2022-08-21T11:52:59;43.50;24.70
10459;DHT22;5277;48.722;8.736;2022-08-21T11:55:31;42.40;24.80
10459;DHT22;5277;48.722;8.736;2022-08-21T11:58:19;41.40;25.10
10459;DHT22;5277;48.722;8.736;2022-08-21T12:00:51;40.00;26.40
10459;DHT22;5277;48.722;8.736;2022-08-21T12:03:27;38.40;27.20
10459;DHT22;5277;48.722;8.736;2022-08-21T12:06:13;36.70;29.50
10459;DHT22;5277;48.722;8.736;2022-08-21T12:08:42;35.80;30.30
10459;DHT22;5277;48.722;8.736;2022-08-21T12:11:31;36.00;30.80
10459;DHT22;5277;48.722;8.736;2022-08-21T12:14:00;36.70;32.60
10459;DHT22;5277;48.722;8.736;2022-08-21T12:16:40;37.90;30.40
10459;DHT22;5277;48.722;8.736;2022-08-21T12:26:57;41.50;27.50
10459;DHT22;5277;48.722;8.736;2022-08-21T12:29:29;42.40;26.60
10459;DHT22;5277;48.722;8.736;2022-08-21T12:34:46;43.50;26.30
10459;DHT22;5277;48.722;8.736;2022-08-21T12:42:46;44.00;24.50
10459;DHT22;5277;48.722;8.736;2022-08-21T12:45:20;43.60;24.70
10459;DHT22;5277;48.722;8.736;2022-08-21T12:50:44;41.20;25.00
10459;DHT22;5277;48.722;8.736;2022-08-21T12:53:21;39.70;25.70
10459;DHT22;5277;48.722;8.736;2022-08-21T12:55:48;38.40;27.20
10459;DHT22;5277;48.722;8.736;2022-08-21T12:58:22;37.10;29.10
10459;DHT22;5277;48.722;8.736;2022-08-21T13:00:52;35.60;30.00
10459;DHT22;5277;48.722;8.736;2022-08-21T13:03:18;34.30;31.70
10459;DHT22;5277;48.722;8.736;2022-08-21T13:05:44;33.60;34.00
10459;DHT22;5277;48.722;8.736;2022-08-21T13:08:12;32.90;33.40
10459;DHT22;5277;48.722;8.736;2022-08-21T13:10:40;32.20;35.10
10459;DHT22;5277;48.722;8.736;2022-08-21T13:13:20;31.80;36.50
10459;DHT22;5277;48.722;8.736;2022-08-21T13:15:46;31.20;37.00
10459;DHT22;5277;48.722;8.736;2022-08-21T13:18:24;30.70;38.40
10459;DHT22;5277;48.722;8.736;2022-08-21T13:20:50;30.40;40.60
10459;DHT22;5277;48.722;8.736;2022-08-21T13:25:45;29.80;41.20
10459;DHT22;5277;48.722;8.736;2022-08-21T13:28:12;29.60;42.60
10459;DHT22;5277;48.722;8.736;2022-08-21T13:30:51;29.50;42.00
10459;DHT22;5277;48.722;8.736;2022-08-21T13:33:20;29.20;44.70
10459;DHT22;5277;48.722;8.736;2022-08-21T13:35:51;28.90;43.80
10459;DHT22;5277;48.722;8.736;2022-08-21T13:38:20;28.40;44.90
10459;DHT22;5277;48.722;8.736;2022-08-21T13:40:50;28.30;46.20
10459;DHT22;5277;48.722;8.736;2022-08-21T13:43:19;28.10;46.10
10459;DHT22;5277;48.722;8.736;2022-08-21T13:45:51;27.80;48.40
10459;DHT22;5277;48.722;8.736;2022-08-21T13:48:17;27.60;46.70
10459;DHT22;5277;48.722;8.736;2022-08-21T13:50:43;27.40;50.90
10459;DHT22;5277;48.722;8.736;2022-08-21T13:53:31;27.20;50.60
10459;DHT22;5277;48.722;8.736;2022-08-21T13:55:58;27.20;48.50
10459;DHT22;5277;48.722;8.736;2022-08-21T13:58:30;26.80;51.80
10459;DHT22;5277;48.722;8.736;2022-08-21T14:00:57;26.70;47.20
10459;DHT22;5277;48.722;8.736;2022-08-21T14:03:35;26.60;50.00
10459;DHT22;5277;48.722;8.736;2022-08-21T14:06:10;26.50;52.40
10459;DHT22;5277;48.722;8.736;2022-08-21T14:08:39;26.30;53.30
10459;DHT22;5277;48.722;8.736;2022-08-21T14:11:11;26.30;54.00
10459;DHT22;5277;48.722;8.736;2022-08-21T14:18:50;26.10;54.40
10459;DHT22;5277;48.722;8.736;2022-08-21T14:21:29;26.00;54.60
10459;DHT22;5277;48.722;8.736;2022-08-21T14:24:26;26.00;52.30
10459;DHT22;5277;48.722;8.736;2022-08-21T14:27:04;26.10;52.40
10459;DHT22;5277;48.722;8.736;2022-08-21T14:29:40;26.00;52.10
10459;DHT22;5277;48.722;8.736;2022-08-21T14:32:28;25.90;51.00
10459;DHT22;5277;48.722;8.736;2022-08-21T14:34:57;25.90;50.00
10459;DHT22;5277;48.722;8.736;2022-08-21T14:37:24;25.90;51.80
10459;DHT22;5277;48.722;8.736;2022-08-21T14:39:50;25.90;51.60
10459;DHT22;5277;48.722;8.736;2022-08-21T14:42:16;25.80;55.60
10459;DHT22;5277;48.722;8.736;2022-08-21T14:44:42;25.70;56.40
10459;DHT22;5277;48.722;8.736;2022-08-21T14:47:08;25.60;55.40
10459;DHT22;5277;48.722;8.736;2022-08-21T14:49:34;25.50;52.30
10459;DHT22;5277;48.722;8.736;2022-08-21T14:52:00;25.50;53.90
10459;DHT22;5277;48.722;8.736;2022-08-21T14:54:30;25.60;54.90
10459;DHT22;5277;48.722;8.736;2022-08-21T14:56:58;25.50;56.00
10459;DHT22;5277;48.722;8.736;2022-08-21T14:59:24;25.40;55.30
10459;DHT22;5277;48.722;8.736;2022-08-21T15:01:51;25.50;55.40
10459;DHT22;5277;48.722;8.736;2022-08-21T15:04:17;25.50;56.10
10459;DHT22;5277;48.722;8.736;2022-08-21T15:06:44;25.50;56.50
10459;DHT22;5277;48.722;8.736;2022-08-21T15:09:09;25.50;58.10
10459;DHT22;5277;48.722;8.736;2022-08-21T15:11:35;25.50;56.50
10459;DHT22;5277;48.722;8.736;2022-08-21T15:14:05;25.50;56.10
10459;DHT22;5277;48.722;8.736;2022-08-21T15:16:33;25.50;57.40
10459;DHT22;5277;48.722;8.736;2022-08-21T15:18:59;25.50;55.70
10459;DHT22;5277;48.722;8.736;2022-08-21T15:21:24;25.50;55.30
10459;DHT22;5277;48.722;8.736;2022-08-21T15:23:50;25.50;54.70
10459;DHT22;5277;48.722;8.736;2022-08-21T15:26:16;25.50;55.30
10459;DHT22;5277;48.722;8.736;2022-08-21T15:28:42;25.30;56.50
10459;DHT22;5277;48.722;8.736;2022-08-21T15:31:08;25.30;57.50
10459;DHT22;5277;48.722;8.736;2022-08-21T15:33:34;25.20;57.20
10459;DHT22;5277;48.722;8.736;2022-08-21T15:35:59;25.20;55.30
10459;DHT22;5277;48.722;8.736;2022-08-21T15:38:25;25.20;55.50
10459;DHT22;5277;48.722;8.736;2022-08-21T15:40:51;25.20;54.90
10459;DHT22;5277;48.722;8.736;2022-08-21T15:43:24;25.20;54.10
10459;DHT22;5277;48.722;8.736;2022-08-21T15:45:50;25.20;55.90
10459;DHT22;5277;48.722;8.736;2022-08-21T15:48:16;25.10;54.80
10459;DHT22;5277;48.722;8.736;2022-08-21T15:50:41;25.10;56.40
10459;DHT22;5277;48.722;8.736;2022-08-21T15:53:07;25.10;56.60
10459;DHT22;5277;48.722;8.736;2022-08-21T15:55:33;25.00;56.70
10459;DHT22;5277;48.722;8.736;2022-08-21T15:58:00;25.00;57.90
10459;DHT22;5277;48.722;8.736;2022-08-21T16:00:26;24.90;57.80
10459;DHT22;5277;48.722;8.736;2022-08-21T16:02:55;24.80;60.00
10459;DHT22;5277;48.722;8.736;2022-08-21T16:05:22;24.70;59.10
10459;DHT22;5277;48.722;8.736;2022-08-21T16:07:49;24.70;61.30
10459;DHT22;5277;48.722;8.736;2022-08-21T16:10:21;24.70;58.50
10459;DHT22;5277;48.722;8.736;2022-08-21T16:13:00;24.70;57.60
10459;DHT22;5277;48.722;8.736;2022-08-21T16:15:27;24.70;57.50
10459;DHT22;5277;48.722;8.736;2022-08-21T16:17:54;24.60;60.40
10459;DHT22;5277;48.722;8.736;2022-08-21T16:20:25;24.50;57.30
10459;DHT22;5277;48.722;8.736;2022-08-21T16:22:52;24.50;57.70
10459;DHT22;5277;48.722;8.736;2022-08-21T16:25:18;24.40;58.50
10459;DHT22;5277;48.722;8.736;2022-08-21T16:27:48;24.40;57.90
10459;DHT22;5277;48.722;8.736;2022-08-21T16:30:16;24.40;58.50
10459;DHT22;5277;48.722;8.736;2022-08-21T16:32:43;24.30;60.00
10459;DHT22;5277;48.722;8.736;2022-08-21T16:35:15;24.20;59.50
10459;DHT22;5277;48.722;8.736;2022-08-21T16:37:41;24.10;61.60
10459;DHT22;5277;48.722;8.736;2022-08-21T16:40:08;24.10;62.90
10459;DHT22;5277;48.722;8.736;2022-08-21T16:42:36;24.10;63.10
10459;DHT22;5277;48.722;8.736;2022-08-21T16:45:05;24.00;60.60
10459;DHT22;5277;48.722;8.736;2022-08-21T16:47:31;24.00;61.00
10459;DHT22;5277;48.722;8.736;2022-08-21T16:49:57;24.00;62.00
10459;DHT22;5277;48.722;8.736;2022-08-21T16:52:23;24.00;61.00
10459;DHT22;5277;48.722;8.736;2022-08-21T16:54:49;24.10;59.50
10459;DHT22;5277;48.722;8.736;2022-08-21T16:57:15;24.00;62.40
10459;DHT22;5277;48.722;8.736;2022-08-21T16:59:41;24.00;60.30
10459;DHT22;5277;48.722;8.736;2022-08-21T17:02:27;24.00;60.10
10459;DHT22;5277;48.722;8.736;2022-08-21T17:04:54;24.00;59.50
10459;DHT22;5277;48.722;8.736;2022-08-21T17:07:20;24.00;60.30
10459;DHT22;5277;48.722;8.736;2022-08-21T17:09:48;23.90;60.00
10459;DHT22;5277;48.722;8.736;2022-08-21T17:12:15;23.90;59.20
10459;DHT22;5277;48.722;8.736;2022-08-21T17:14:41;23.80;64.50
10459;DHT22;5277;48.722;8.736;2022-08-21T17:17:08;23.70;61.30
10459;DHT22;5277;48.722;8.736;2022-08-21T17:19:34;23.70;62.60
10459;DHT22;5277;48.722;8.736;2022-08-21T17:22:00;23.70;61.70
10459;DHT22;5277;48.722;8.736;2022-08-21T17:24:26;23.60;60.90